sensor_id;sensor_type;location;lat;lon;timestamp;temperature;humidity
12254;DHT22;6189;52.526;13.390;2023-08-12T00:01:06;21.50;99.90
12254;DHT22;6189;52.526;13.390;2023-08-12T00:03:55;21.60;99.90
12254;DHT22;6189;52.526;13.390;2023-08-12T00:06:47;21.50;99.90
12254;DHT22;6189;52.526;13.390;2023-08-12T00:09:37;21.50;99.90
12254;DHT22;6189;52.526;13.390;2023-08-12T00:12:24;21.40;99.90
12254;DHT22;6189;52.526;13.390;2023-08-12T00:15:13;21.30;99.90
12254;DHT22;6189;52.526;13.390;2023-08-12T00:18:00;21.30;99.90
12254;DHT22;6189;52.526;13.390;2023-08-12T00:20:50;21.30;99.90
12254;DHT22;6189;52.526;13.390;2023-08-12T00:23:39;21.30;99.90
12254;DHT22;6189;52.526;13.390;2023-08-12T00:26:27;21.40;99.90
12254;DHT22;6189;52.526;13.390;2023-08-12T00:29:14;21.40;99.90
12254;DHT22;6189;52.526;13.390;2023-08-12T00:32:01;21.40;99.90
12254;DHT22;6189;52.526;13.390;2023-08-12T00:34:50;21.30;99.90
12254;DHT22;6189;52.526;13.390;2023-08-12T00:37:37;21.20;99.90
12254;DHT22;6189;52.526;13.390;2023-08-12T00:40:27;21.20;99.90
12254;DHT22;6189;52.526;13.390;2023-08-12T00:43:14;21.30;99.90
12254;DHT22;6189;52.526;13.390;2023-08-12T00:46:01;21.30;99.90
12254;DHT22;6189;52.526;13.390;2023-08-12T00:48:49;21.20;99.90
12254;DHT22;6189;52.526;13.390;2023-08-12T00:51:36;21.20;99.90
12254;DHT22;6189;52.526;13.390;2023-08-12T00:54:26;21.10;99.90
12254;DHT22;6189;52.526;13.390;2023-08-12T00:57:15;21.10;99.90
12254;DHT22;6189;52.526;13.390;2023-08-12T01:00:04;21.10;99.90
12254;DHT22;6189;52.526;13.390;2023-08-12T01:02:51;21.20;99.90
12254;DHT22;6189;52.526;13.390;2023-08-12T01:05:39;21.20;99.90
12254;DHT22;6189;52.526;13.390;2023-08-12T01:08:28;21.10;99.90
12254;DHT22;6189;52.526;13.390;2023-08-12T01:11:16;21.10;99.90
12254;DHT22;6189;52.526;13.390;2023-08-12T01:14:11;21.10;99.90
12254;DHT22;6189;52.526;13.390;2023-08-12T01:17:00;21.00;99.90
12254;DHT22;6189;52.526;13.390;2023-08-12T01:19:49;21.00;99.90
12254;DHT22;6189;52.526;13.390;2023-08-12T01:22:38;21.00;99.90
12254;DHT22;6189;52.526;13.390;2023-08-12T01:25:28;21.00;99.90
12254;DHT22;6189;52.526;13.390;2023-08-12T01:28:15;21.00;99.90
12254;DHT22;6189;52.526;13.390;2023-08-12T01:31:03;21.00;99.90
12254;DHT22;6189;52.526;13.390;2023-08-12T01:33:54;21.00;99.90
12254;DHT22;6189;52.526;13.390;2023-08-12T01:36:42;20.90;99.90
12254;DHT22;6189;52.526;13.390;2023-08-12T01:39:31;20.80;99.90
12254;DHT22;6189;52.526;13.390;2023-08-12T01:42:22;20.80;99.90
12254;DHT22;6189;52.526;13.390;2023-08-12T01:45:09;20.90;99.90
12254;DHT22;6189;52.526;13.390;2023-08-12T01:47:56;20.90;99.90
12254;DHT22;6189;52.526;13.390;2023-08-12T01:50:44;20.90;99.90
12254;DHT22;6189;52.526;13.390;2023-08-12T01:53:33;20.90;99.90
12254;DHT22;6189;52.526;13.390;2023-08-12T01:56:20;20.80;99.90
12254;DHT22;6189;52.526;13.390;2023-08-12T01:59:11;20.70;99.90
12254;DHT22;6189;52.526;13.390;2023-08-12T02:01:58;20.70;99.90
12254;DHT22;6189;52.526;13.390;2023-08-12T02:04:45;20.70;99.90
12254;DHT22;6189;52.526;13.390;2023-08-12T02:07:32;20.60;99.90
12254;DHT22;6189;52.526;13.390;2023-08-12T02:10:20;20.70;99.90
12254;DHT22;6189;52.526;13.390;2023-08-12T02:13:07;20.70;99.90
12254;DHT22;6189;52.526;13.390;2023-08-12T02:15:55;20.60;99.90
12254;DHT22;6189;52.526;13.390;2023-08-12T02:18:44;20.60;99.90
12254;DHT22;6189;52.526;13.390;2023-08-12T02:21:31;20.60;99.90
12254;DHT22;6189;52.526;13.390;2023-08-12T02:24:18;20.60;99.90
12254;DHT22;6189;52.526;13.390;2023-08-12T02:27:05;20.60;99.90
12254;DHT22;6189;52.526;13.390;2023-08-12T02:29:52;20.60;99.90
12254;DHT22;6189;52.526;13.390;2023-08-12T02:32:41;20.50;99.90
12254;DHT22;6189;52.526;13.390;2023-08-12T02:35:29;20.60;99.90
12254;DHT22;6189;52.526;13.390;2023-08-12T02:38:16;20.60;99.90
12254;DHT22;6189;52.526;13.390;2023-08-12T02:41:03;20.60;99.90
12254;DHT22;6189;52.526;13.390;2023-08-12T02:43:50;20.60;99.90
12254;DHT22;6189;52.526;13.390;2023-08-12T02:46:37;20.50;99.90
12254;DHT22;6189;52.526;13.390;2023-08-12T02:49:26;20.50;99.90
12254;DHT22;6189;52.526;13.390;2023-08-12T02:52:13;20.50;99.90
12254;DHT22;6189;52.526;13.390;2023-08-12T02:55:01;20.50;99.90
12254;DHT22;6189;52.526;13.390;2023-08-12T02:57:48;20.50;99.90
12254;DHT22;6189;52.526;13.390;2023-08-12T03:00:35;20.40;99.90
12254;DHT22;6189;52.526;13.390;2023-08-12T03:03:22;20.40;99.90
12254;DHT22;6189;52.526;13.390;2023-08-12T03:06:12;20.40;99.90
12254;DHT22;6189;52.526;13.390;2023-08-12T03:08:59;20.40;99.90
12254;DHT22;6189;52.526;13.390;2023-08-12T03:11:46;20.40;99.90
12254;DHT22;6189;52.526;13.390;2023-08-12T03:14:34;20.40;99.90
12254;DHT22;6189;52.526;13.390;2023-08-12T03:17:21;20.20;99.90
12254;DHT22;6189;52.526;13.390;2023-08-12T03:20:09;20.20;99.90
12254;DHT22;6189;52.526;13.390;2023-08-12T03:22:58;20.30;99.90
12254;DHT22;6189;52.526;13.390;2023-08-12T03:25:46;20.20;99.90
12254;DHT22;6189;52.526;13.390;2023-08-12T03:28:33;20.30;99.90
12254;DHT22;6189;52.526;13.390;2023-08-12T03:31:20;20.30;99.90
12254;DHT22;6189;52.526;13.390;2023-08-12T03:34:08;20.30;99.90
12254;DHT22;6189;52.526;13.390;2023-08-12T03:36:55;20.30;99.90
12254;DHT22;6189;52.526;13.390;2023-08-12T03:39:44;20.40;99.90
12254;DHT22;6189;52.526;13.390;2023-08-12T03:42:31;20.40;99.90
12254;DHT22;6189;52.526;13.390;2023-08-12T03:45:18;20.40;99.90
12254;DHT22;6189;52.526;13.390;2023-08-12T03:48:07;20.40;99.90
12254;DHT22;6189;52.526;13.390;2023-08-12T03:50:54;20.40;99.90
12254;DHT22;6189;52.526;13.390;2023-08-12T03:53:41;20.50;99.90
12254;DHT22;6189;52.526;13.390;2023-08-12T03:56:30;20.40;99.90
12254;DHT22;6189;52.526;13.390;2023-08-12T03:59:17;20.40;99.90
12254;DHT22;6189;52.526;13.390;2023-08-12T04:02:04;20.40;99.90
12254;DHT22;6189;52.526;13.390;2023-08-12T04:04:51;20.40;99.90
12254;DHT22;6189;52.526;13.390;2023-08-12T04:07:39;20.40;99.90
12254;DHT22;6189;52.526;13.390;2023-08-12T04:10:26;20.50;99.90
12254;DHT22;6189;52.526;13.390;2023-08-12T04:13:15;20.50;99.90
12254;DHT22;6189;52.526;13.390;2023-08-12T04:16:02;20.50;99.90
12254;DHT22;6189;52.526;13.390;2023-08-12T04:18:50;20.50;99.90
12254;DHT22;6189;52.526;13.390;2023-08-12T04:21:38;20.50;99.90
12254;DHT22;6189;52.526;13.390;2023-08-12T04:24:25;20.50;99.90
12254;DHT22;6189;52.526;13.390;2023-08-12T04:27:12;20.40;99.90
12254;DHT22;6189;52.526;13.390;2023-08-12T04:30:04;20.20;99.90
12254;DHT22;6189;52.526;13.390;2023-08-12T04:32:51;20.30;99.90
12254;DHT22;6189;52.526;13.390;2023-08-12T04:35:38;20.30;99.90
12254;DHT22;6189;52.526;13.390;2023-08-12T04:38:25;20.30;99.90
12254;DHT22;6189;52.526;13.390;2023-08-12T04:41:13;20.40;99.90
12254;DHT22;6189;52.526;13.390;2023-08-12T04:44:00;20.40;99.90
12254;DHT22;6189;52.526;13.390;2023-08-12T04:46:48;20.40;99.90
12254;DHT22;6189;52.526;13.390;2023-08-12T04:49:36;20.40;99.90
12254;DHT22;6189;52.526;13.390;2023-08-12T04:52:23;20.40;99.90
12254;DHT22;6189;52.526;13.390;2023-08-12T04:55:10;20.10;99.90
12254;DHT22;6189;52.526;13.390;2023-08-12T04:57:58;20.10;99.90
12254;DHT22;6189;52.526;13.390;2023-08-12T05:00:46;19.90;99.90
12254;DHT22;6189;52.526;13.390;2023-08-12T05:03:35;19.90;99.90
12254;DHT22;6189;52.526;13.390;2023-08-12T05:06:22;19.90;99.90
12254;DHT22;6189;52.526;13.390;2023-08-12T05:09:10;19.80;99.90
12254;DHT22;6189;52.526;13.390;2023-08-12T05:11:57;20.00;99.90
12254;DHT22;6189;52.526;13.390;2023-08-12T05:14:44;20.10;99.90
12254;DHT22;6189;52.526;13.390;2023-08-12T05:17:31;20.30;99.90
12254;DHT22;6189;52.526;13.390;2023-08-12T05:20:21;20.40;99.90
12254;DHT22;6189;52.526;13.390;2023-08-12T05:23:09;20.50;99.90
12254;DHT22;6189;52.526;13.390;2023-08-12T05:25:56;20.60;99.90
12254;DHT22;6189;52.526;13.390;2023-08-12T05:28:43;20.70;99.90
12254;DHT22;6189;52.526;13.390;2023-08-12T05:31:30;20.70;99.90
12254;DHT22;6189;52.526;13.390;2023-08-12T05:34:18;20.50;99.90
12254;DHT22;6189;52.526;13.390;2023-08-12T05:37:06;20.60;99.90
12254;DHT22;6189;52.526;13.390;2023-08-12T05:39:54;20.70;99.90
12254;DHT22;6189;52.526;13.390;2023-08-12T05:42:41;20.60;99.90
12254;DHT22;6189;52.526;13.390;2023-08-12T05:45:29;20.70;99.90
12254;DHT22;6189;52.526;13.390;2023-08-12T05:48:16;20.70;99.90
12254;DHT22;6189;52.526;13.390;2023-08-12T05:51:03;20.70;99.90
12254;DHT22;6189;52.526;13.390;2023-08-12T05:53:52;20.90;99.90
12254;DHT22;6189;52.526;13.390;2023-08-12T05:56:39;21.00;99.90
12254;DHT22;6189;52.526;13.390;2023-08-12T05:59:26;21.00;99.90
12254;DHT22;6189;52.526;13.390;2023-08-12T06:02:14;21.10;99.90
12254;DHT22;6189;52.526;13.390;2023-08-12T06:05:01;21.10;99.90
12254;DHT22;6189;52.526;13.390;2023-08-12T06:07:48;21.10;99.90
12254;DHT22;6189;52.526;13.390;2023-08-12T06:10:37;21.10;99.90
12254;DHT22;6189;52.526;13.390;2023-08-12T06:13:25;21.10;99.90
12254;DHT22;6189;52.526;13.390;2023-08-12T06:16:12;21.00;99.90
12254;DHT22;6189;52.526;13.390;2023-08-12T06:18:59;21.00;99.90
12254;DHT22;6189;52.526;13.390;2023-08-12T06:21:47;21.00;99.90
12254;DHT22;6189;52.526;13.390;2023-08-12T06:24:34;21.00;99.90
12254;DHT22;6189;52.526;13.390;2023-08-12T06:27:22;21.00;99.90
12254;DHT22;6189;52.526;13.390;2023-08-12T06:30:10;21.10;99.90
12254;DHT22;6189;52.526;13.390;2023-08-12T06:32:58;21.10;99.90
12254;DHT22;6189;52.526;13.390;2023-08-12T06:35:45;21.20;99.90
12254;DHT22;6189;52.526;13.390;2023-08-12T06:38:32;21.20;99.90
12254;DHT22;6189;52.526;13.390;2023-08-12T06:41:19;21.30;99.90
12254;DHT22;6189;52.526;13.390;2023-08-12T06:44:08;21.30;99.90
12254;DHT22;6189;52.526;13.390;2023-08-12T06:46:55;21.40;99.90
12254;DHT22;6189;52.526;13.390;2023-08-12T06:49:43;21.40;99.90
12254;DHT22;6189;52.526;13.390;2023-08-12T06:52:30;21.50;99.90
12254;DHT22;6189;52.526;13.390;2023-08-12T06:55:17;21.50;99.90
12254;DHT22;6189;52.526;13.390;2023-08-12T06:58:04;21.60;99.90
12254;DHT22;6189;52.526;13.390;2023-08-12T07:00:53;21.70;99.90
12254;DHT22;6189;52.526;13.390;2023-08-12T07:03:40;21.70;99.90
12254;DHT22;6189;52.526;13.390;2023-08-12T07:06:27;21.70;99.90
12254;DHT22;6189;52.526;13.390;2023-08-12T07:09:15;21.70;99.90
12254;DHT22;6189;52.526;13.390;2023-08-12T07:12:02;21.70;99.90
12254;DHT22;6189;52.526;13.390;2023-08-12T07:14:50;21.80;99.90
12254;DHT22;6189;52.526;13.390;2023-08-12T07:17:39;21.90;99.90
12254;DHT22;6189;52.526;13.390;2023-08-12T07:20:27;22.00;99.90
12254;DHT22;6189;52.526;13.390;2023-08-12T07:23:15;22.10;99.90
12254;DHT22;6189;52.526;13.390;2023-08-12T07:26:02;22.10;99.90
12254;DHT22;6189;52.526;13.390;2023-08-12T07:28:49;22.20;99.90
12254;DHT22;6189;52.526;13.390;2023-08-12T07:31:37;22.20;99.90
12254;DHT22;6189;52.526;13.390;2023-08-12T07:34:26;22.30;99.90
12254;DHT22;6189;52.526;13.390;2023-08-12T07:37:13;22.50;99.90
12254;DHT22;6189;52.526;13.390;2023-08-12T07:40:00;22.60;99.90
12254;DHT22;6189;52.526;13.390;2023-08-12T07:42:49;22.60;99.90
12254;DHT22;6189;52.526;13.390;2023-08-12T07:45:36;22.60;99.90
12254;DHT22;6189;52.526;13.390;2023-08-12T07:48:23;22.60;99.90
12254;DHT22;6189;52.526;13.390;2023-08-12T07:51:12;22.70;99.90
12254;DHT22;6189;52.526;13.390;2023-08-12T07:53:59;22.70;99.90
12254;DHT22;6189;52.526;13.390;2023-08-12T07:56:46;22.80;99.90
12254;DHT22;6189;52.526;13.390;2023-08-12T07:59:33;22.90;99.90
12254;DHT22;6189;52.526;13.390;2023-08-12T08:02:20;22.90;99.90
12254;DHT22;6189;52.526;13.390;2023-08-12T08:05:08;22.90;99.90
12254;DHT22;6189;52.526;13.390;2023-08-12T08:07:57;22.80;99.90
12254;DHT22;6189;52.526;13.390;2023-08-12T08:10:44;22.80;99.90
12254;DHT22;6189;52.526;13.390;2023-08-12T08:13:31;22.80;99.90
12254;DHT22;6189;52.526;13.390;2023-08-12T08:16:18;22.80;99.90
12254;DHT22;6189;52.526;13.390;2023-08-12T08:19:05;22.90;99.90
12254;DHT22;6189;52.526;13.390;2023-08-12T08:21:56;23.00;99.90
12254;DHT22;6189;52.526;13.390;2023-08-12T08:24:45;23.00;99.90
12254;DHT22;6189;52.526;13.390;2023-08-12T08:27:32;23.00;99.90
12254;DHT22;6189;52.526;13.390;2023-08-12T08:30:20;22.90;99.90
12254;DHT22;6189;52.526;13.390;2023-08-12T08:33:08;23.00;99.90
12254;DHT22;6189;52.526;13.390;2023-08-12T08:35:55;23.10;99.90
12254;DHT22;6189;52.526;13.390;2023-08-12T08:38:42;23.00;99.90
12254;DHT22;6189;52.526;13.390;2023-08-12T08:41:31;22.90;99.90
12254;DHT22;6189;52.526;13.390;2023-08-12T08:44:19;22.80;99.90
12254;DHT22;6189;52.526;13.390;2023-08-12T08:47:08;22.90;99.90
12254;DHT22;6189;52.526;13.390;2023-08-12T08:49:55;22.80;99.90
12254;DHT22;6189;52.526;13.390;2023-08-12T08:52:43;22.80;99.90
12254;DHT22;6189;52.526;13.390;2023-08-12T08:55:30;22.80;99.90
12254;DHT22;6189;52.526;13.390;2023-08-12T08:58:19;22.80;99.90
12254;DHT22;6189;52.526;13.390;2023-08-12T09:01:06;22.80;99.90
12254;DHT22;6189;52.526;13.390;2023-08-12T09:03:54;22.80;99.90
12254;DHT22;6189;52.526;13.390;2023-08-12T09:06:41;22.90;99.90
12254;DHT22;6189;52.526;13.390;2023-08-12T09:09:31;23.00;99.90
12254;DHT22;6189;52.526;13.390;2023-08-12T09:12:18;23.00;99.90
12254;DHT22;6189;52.526;13.390;2023-08-12T09:15:09;23.00;99.90
12254;DHT22;6189;52.526;13.390;2023-08-12T09:17:56;23.00;99.90
12254;DHT22;6189;52.526;13.390;2023-08-12T09:20:44;23.20;99.90
12254;DHT22;6189;52.526;13.390;2023-08-12T09:23:33;23.20;99.90
12254;DHT22;6189;52.526;13.390;2023-08-12T09:26:21;23.20;99.90
12254;DHT22;6189;52.526;13.390;2023-08-12T09:29:08;23.20;99.90
12254;DHT22;6189;52.526;13.390;2023-08-12T09:31:57;23.30;99.90
12254;DHT22;6189;52.526;13.390;2023-08-12T09:34:52;23.60;99.90
12254;DHT22;6189;52.526;13.390;2023-08-12T09:37:40;23.60;99.90
12254;DHT22;6189;52.526;13.390;2023-08-12T09:40:28;23.60;99.90
12254;DHT22;6189;52.526;13.390;2023-08-12T09:43:16;23.60;99.90
12254;DHT22;6189;52.526;13.390;2023-08-12T09:46:03;23.70;99.90
12254;DHT22;6189;52.526;13.390;2023-08-12T09:48:52;23.70;99.90
12254;DHT22;6189;52.526;13.390;2023-08-12T09:51:39;23.70;99.90
12254;DHT22;6189;52.526;13.390;2023-08-12T09:54:28;23.70;99.90
12254;DHT22;6189;52.526;13.390;2023-08-12T09:57:15;23.80;99.90
12254;DHT22;6189;52.526;13.390;2023-08-12T10:00:05;23.70;99.90
12254;DHT22;6189;52.526;13.390;2023-08-12T10:02:58;23.90;99.90
12254;DHT22;6189;52.526;13.390;2023-08-12T10:05:48;23.90;99.90
12254;DHT22;6189;52.526;13.390;2023-08-12T10:08:35;23.90;99.90
12254;DHT22;6189;52.526;13.390;2023-08-12T10:11:23;24.00;99.90
12254;DHT22;6189;52.526;13.390;2023-08-12T10:14:12;24.10;99.90
12254;DHT22;6189;52.526;13.390;2023-08-12T10:16:59;24.20;99.90
12254;DHT22;6189;52.526;13.390;2023-08-12T10:19:46;24.30;99.90
12254;DHT22;6189;52.526;13.390;2023-08-12T10:22:36;24.30;99.90
12254;DHT22;6189;52.526;13.390;2023-08-12T10:25:24;24.20;99.90
12254;DHT22;6189;52.526;13.390;2023-08-12T10:28:12;24.30;99.90
12254;DHT22;6189;52.526;13.390;2023-08-12T10:30:59;24.30;99.90
12254;DHT22;6189;52.526;13.390;2023-08-12T10:33:47;24.30;99.90
12254;DHT22;6189;52.526;13.390;2023-08-12T10:36:35;24.40;99.90
12254;DHT22;6189;52.526;13.390;2023-08-12T10:39:30;24.40;99.90
12254;DHT22;6189;52.526;13.390;2023-08-12T10:45:20;24.50;99.90
12254;DHT22;6189;52.526;13.390;2023-08-12T10:48:15;24.40;99.90
12254;DHT22;6189;52.526;13.390;2023-08-12T10:51:03;24.50;99.90
12254;DHT22;6189;52.526;13.390;2023-08-12T10:53:50;24.60;99.90
12254;DHT22;6189;52.526;13.390;2023-08-12T10:59:49;24.90;99.90
12254;DHT22;6189;52.526;13.390;2023-08-12T11:02:37;24.90;99.90
12254;DHT22;6189;52.526;13.390;2023-08-12T11:05:35;25.00;99.90
12254;DHT22;6189;52.526;13.390;2023-08-12T11:08:24;25.00;99.90
12254;DHT22;6189;52.526;13.390;2023-08-12T11:11:18;25.00;99.90
12254;DHT22;6189;52.526;13.390;2023-08-12T11:14:11;25.10;99.90
12254;DHT22;6189;52.526;13.390;2023-08-12T11:17:00;25.30;99.90
12254;DHT22;6189;52.526;13.390;2023-08-12T11:19:58;25.40;99.90
12254;DHT22;6189;52.526;13.390;2023-08-12T11:22:46;25.40;99.90
12254;DHT22;6189;52.526;13.390;2023-08-12T11:25:34;25.50;99.90
12254;DHT22;6189;52.526;13.390;2023-08-12T11:28:23;25.50;99.90
12254;DHT22;6189;52.526;13.390;2023-08-12T11:31:11;25.50;99.90
12254;DHT22;6189;52.526;13.390;2023-08-12T11:33:59;25.50;99.90
12254;DHT22;6189;52.526;13.390;2023-08-12T11:36:46;25.50;99.90
12254;DHT22;6189;52.526;13.390;2023-08-12T11:39:35;25.50;99.90
12254;DHT22;6189;52.526;13.390;2023-08-12T11:42:22;25.50;99.90
12254;DHT22;6189;52.526;13.390;2023-08-12T11:45:10;25.50;99.90
12254;DHT22;6189;52.526;13.390;2023-08-12T11:47:57;25.50;99.90
12254;DHT22;6189;52.526;13.390;2023-08-12T11:50:46;25.40;99.90
12254;DHT22;6189;52.526;13.390;2023-08-12T11:53:33;25.40;99.90
12254;DHT22;6189;52.526;13.390;2023-08-12T11:56:20;25.30;99.90
12254;DHT22;6189;52.526;13.390;2023-08-12T11:59:08;25.20;99.90
12254;DHT22;6189;52.526;13.390;2023-08-12T12:01:56;25.20;99.90
12254;DHT22;6189;52.526;13.390;2023-08-12T12:04:45;25.20;99.90
12254;DHT22;6189;52.526;13.390;2023-08-12T12:07:37;25.10;99.90
12254;DHT22;6189;52.526;13.390;2023-08-12T12:10:28;25.10;99.90
12254;DHT22;6189;52.526;13.390;2023-08-12T12:13:17;25.10;99.90
12254;DHT22;6189;52.526;13.390;2023-08-12T12:16:09;25.00;99.90
12254;DHT22;6189;52.526;13.390;2023-08-12T12:18:57;24.90;99.90
12254;DHT22;6189;52.526;13.390;2023-08-12T12:21:45;24.90;99.90
12254;DHT22;6189;52.526;13.390;2023-08-12T12:24:44;24.90;99.90
12254;DHT22;6189;52.526;13.390;2023-08-12T12:27:32;24.90;99.90
12254;DHT22;6189;52.526;13.390;2023-08-12T12:30:20;24.70;99.90
12254;DHT22;6189;52.526;13.390;2023-08-12T12:33:09;24.70;99.90
12254;DHT22;6189;52.526;13.390;2023-08-12T12:35:56;24.70;99.90
12254;DHT22;6189;52.526;13.390;2023-08-12T12:38:43;24.60;99.90
12254;DHT22;6189;52.526;13.390;2023-08-12T12:41:32;24.60;99.90
12254;DHT22;6189;52.526;13.390;2023-08-12T12:44:20;24.60;99.90
12254;DHT22;6189;52.526;13.390;2023-08-12T12:47:07;24.70;99.90
12254;DHT22;6189;52.526;13.390;2023-08-12T12:49:56;24.70;99.90
12254;DHT22;6189;52.526;13.390;2023-08-12T12:52:43;24.70;99.90
12254;DHT22;6189;52.526;13.390;2023-08-12T12:55:31;24.80;99.90
12254;DHT22;6189;52.526;13.390;2023-08-12T12:58:20;24.80;99.90
12254;DHT22;6189;52.526;13.390;2023-08-12T13:01:09;24.90;99.90
12254;DHT22;6189;52.526;13.390;2023-08-12T13:03:56;25.00;99.90
12254;DHT22;6189;52.526;13.390;2023-08-12T13:06:43;25.00;99.90
12254;DHT22;6189;52.526;13.390;2023-08-12T13:09:30;25.00;99.90
12254;DHT22;6189;52.526;13.390;2023-08-12T13:12:17;25.10;99.90
12254;DHT22;6189;52.526;13.390;2023-08-12T13:15:07;25.20;99.90
12254;DHT22;6189;52.526;13.390;2023-08-12T13:17:55;25.20;99.90
12254;DHT22;6189;52.526;13.390;2023-08-12T13:20:43;25.30;99.90
12254;DHT22;6189;52.526;13.390;2023-08-12T13:23:30;25.40;99.90
12254;DHT22;6189;52.526;13.390;2023-08-12T13:26:17;25.40;99.90
12254;DHT22;6189;52.526;13.390;2023-08-12T13:29:05;25.40;99.90
12254;DHT22;6189;52.526;13.390;2023-08-12T13:31:54;25.40;99.90
12254;DHT22;6189;52.526;13.390;2023-08-12T13:34:41;25.40;99.90
12254;DHT22;6189;52.526;13.390;2023-08-12T13:37:32;25.50;99.90
12254;DHT22;6189;52.526;13.390;2023-08-12T13:40:19;25.50;99.90
12254;DHT22;6189;52.526;13.390;2023-08-12T13:43:06;25.60;99.90
12254;DHT22;6189;52.526;13.390;2023-08-12T13:45:53;25.70;99.90
12254;DHT22;6189;52.526;13.390;2023-08-12T13:48:42;25.80;99.90
12254;DHT22;6189;52.526;13.390;2023-08-12T13:51:30;25.90;99.90
12254;DHT22;6189;52.526;13.390;2023-08-12T13:54:17;26.10;99.90
12254;DHT22;6189;52.526;13.390;2023-08-12T13:57:04;26.20;99.90
12254;DHT22;6189;52.526;13.390;2023-08-12T13:59:51;26.10;99.90
12254;DHT22;6189;52.526;13.390;2023-08-12T14:02:39;26.20;99.90
12254;DHT22;6189;52.526;13.390;2023-08-12T14:05:35;26.20;99.90
12254;DHT22;6189;52.526;13.390;2023-08-12T14:08:22;26.30;99.90
12254;DHT22;6189;52.526;13.390;2023-08-12T14:11:09;26.20;99.90
12254;DHT22;6189;52.526;13.390;2023-08-12T14:13:56;26.20;99.90
12254;DHT22;6189;52.526;13.390;2023-08-12T14:16:44;26.20;99.90
12254;DHT22;6189;52.526;13.390;2023-08-12T14:19:31;26.40;99.90
12254;DHT22;6189;52.526;13.390;2023-08-12T14:22:20;26.60;99.90
12254;DHT22;6189;52.526;13.390;2023-08-12T14:25:07;26.60;99.90
12254;DHT22;6189;52.526;13.390;2023-08-12T14:27:57;26.70;99.90
12254;DHT22;6189;52.526;13.390;2023-08-12T14:30:44;26.60;99.90
12254;DHT22;6189;52.526;13.390;2023-08-12T14:33:33;26.70;99.90
12254;DHT22;6189;52.526;13.390;2023-08-12T14:36:21;26.70;99.90
12254;DHT22;6189;52.526;13.390;2023-08-12T14:39:10;26.70;99.90
12254;DHT22;6189;52.526;13.390;2023-08-12T14:41:57;26.90;99.90
12254;DHT22;6189;52.526;13.390;2023-08-12T14:44:49;26.80;99.90
12254;DHT22;6189;52.526;13.390;2023-08-12T14:47:36;26.70;99.90
12254;DHT22;6189;52.526;13.390;2023-08-12T14:50:23;26.70;99.90
12254;DHT22;6189;52.526;13.390;2023-08-12T14:53:11;26.80;99.90
12254;DHT22;6189;52.526;13.390;2023-08-12T14:55:59;26.70;99.90
12254;DHT22;6189;52.526;13.390;2023-08-12T14:58:47;26.80;99.90
12254;DHT22;6189;52.526;13.390;2023-08-12T15:01:34;27.00;99.90
12254;DHT22;6189;52.526;13.390;2023-08-12T15:04:22;26.80;99.90
12254;DHT22;6189;52.526;13.390;2023-08-12T15:07:09;27.00;99.90
12254;DHT22;6189;52.526;13.390;2023-08-12T15:09:57;27.10;99.90
12254;DHT22;6189;52.526;13.390;2023-08-12T15:12:46;26.90;99.90
12254;DHT22;6189;52.526;13.390;2023-08-12T15:15:33;26.80;99.90
12254;DHT22;6189;52.526;13.390;2023-08-12T15:18:20;26.60;99.90
12254;DHT22;6189;52.526;13.390;2023-08-12T15:21:09;26.60;99.90
12254;DHT22;6189;52.526;13.390;2023-08-12T15:23:56;26.70;99.90
12254;DHT22;6189;52.526;13.390;2023-08-12T15:26:43;26.70;99.90
12254;DHT22;6189;52.526;13.390;2023-08-12T15:29:32;26.70;99.90
12254;DHT22;6189;52.526;13.390;2023-08-12T15:32:19;26.70;99.90
12254;DHT22;6189;52.526;13.390;2023-08-12T15:35:07;26.80;99.90
12254;DHT22;6189;52.526;13.390;2023-08-12T15:37:55;26.70;99.90
12254;DHT22;6189;52.526;13.390;2023-08-12T15:40:42;26.70;99.90
12254;DHT22;6189;52.526;13.390;2023-08-12T15:43:30;26.70;99.90
12254;DHT22;6189;52.526;13.390;2023-08-12T15:46:19;26.60;99.90
12254;DHT22;6189;52.526;13.390;2023-08-12T15:49:07;26.40;99.90
12254;DHT22;6189;52.526;13.390;2023-08-12T15:51:56;26.30;99.90
12254;DHT22;6189;52.526;13.390;2023-08-12T15:54:43;26.30;99.90
12254;DHT22;6189;52.526;13.390;2023-08-12T15:57:30;26.60;99.90
12254;DHT22;6189;52.526;13.390;2023-08-12T16:00:18;26.60;99.90
12254;DHT22;6189;52.526;13.390;2023-08-12T16:03:07;26.60;99.90
12254;DHT22;6189;52.526;13.390;2023-08-12T16:05:56;26.50;99.90
12254;DHT22;6189;52.526;13.390;2023-08-12T16:08:46;26.40;99.90
12254;DHT22;6189;52.526;13.390;2023-08-12T16:11:34;26.40;99.90
12254;DHT22;6189;52.526;13.390;2023-08-12T16:14:21;26.30;99.90
12254;DHT22;6189;52.526;13.390;2023-08-12T16:17:09;26.30;99.90
12254;DHT22;6189;52.526;13.390;2023-08-12T16:19:58;26.20;99.90
12254;DHT22;6189;52.526;13.390;2023-08-12T16:22:45;26.20;99.90
12254;DHT22;6189;52.526;13.390;2023-08-12T16:25:32;26.20;99.90
12254;DHT22;6189;52.526;13.390;2023-08-12T16:28:19;26.10;99.90
12254;DHT22;6189;52.526;13.390;2023-08-12T16:31:06;26.10;99.90
12254;DHT22;6189;52.526;13.390;2023-08-12T16:33:53;26.10;99.90
12254;DHT22;6189;52.526;13.390;2023-08-12T16:36:42;26.00;99.90
12254;DHT22;6189;52.526;13.390;2023-08-12T16:39:31;26.00;99.90
12254;DHT22;6189;52.526;13.390;2023-08-12T16:42:18;25.90;99.90
12254;DHT22;6189;52.526;13.390;2023-08-12T16:45:06;26.00;99.90
12254;DHT22;6189;52.526;13.390;2023-08-12T16:47:53;26.00;99.90
12254;DHT22;6189;52.526;13.390;2023-08-12T16:50:41;25.90;99.90
12254;DHT22;6189;52.526;13.390;2023-08-12T16:53:30;25.90;99.90
12254;DHT22;6189;52.526;13.390;2023-08-12T16:56:17;26.00;99.90
12254;DHT22;6189;52.526;13.390;2023-08-12T16:59:05;26.00;99.90
12254;DHT22;6189;52.526;13.390;2023-08-12T17:01:53;26.00;99.90
12254;DHT22;6189;52.526;13.390;2023-08-12T17:04:40;26.00;99.90
12254;DHT22;6189;52.526;13.390;2023-08-12T17:07:27;26.20;99.90
12254;DHT22;6189;52.526;13.390;2023-08-12T17:10:19;26.20;99.90
12254;DHT22;6189;52.526;13.390;2023-08-12T17:13:09;26.30;99.90
12254;DHT22;6189;52.526;13.390;2023-08-12T17:15:57;26.30;99.90
12254;DHT22;6189;52.526;13.390;2023-08-12T17:18:44;26.40;99.90
12254;DHT22;6189;52.526;13.390;2023-08-12T17:21:31;26.40;99.90
12254;DHT22;6189;52.526;13.390;2023-08-12T17:24:19;26.40;99.90
12254;DHT22;6189;52.526;13.390;2023-08-12T17:27:08;26.40;99.90
12254;DHT22;6189;52.526;13.390;2023-08-12T17:29:55;26.40;99.90
12254;DHT22;6189;52.526;13.390;2023-08-12T17:32:42;26.20;99.90
12254;DHT22;6189;52.526;13.390;2023-08-12T17:35:29;26.20;99.90
12254;DHT22;6189;52.526;13.390;2023-08-12T17:38:16;26.20;99.90
12254;DHT22;6189;52.526;13.390;2023-08-12T17:41:04;26.20;99.90
12254;DHT22;6189;52.526;13.390;2023-08-12T17:43:53;26.20;99.90
12254;DHT22;6189;52.526;13.390;2023-08-12T17:46:40;26.20;99.90